Dades meteomassalio
Diari Summary for Octubre 28, 2017 Units:  Metric    English   Both
« Previous Day
Next Day »
Diari Semanal Mensual Anual Personalitzat
  Maxima: Minima: Mijana:
Temperatura: 21.7 °C 10.0 °C 16 °C
Rosada: 10.9 °C 4.2 °C 8.7 °C
Humitat: 77 % 46 % 63 %
Velocitat del vent: 32.2 km/h 0.0 km/h 18.8 km/h
Racha vent: 32.2 km/h - -
Vent:- - SSW
Pressio: 1029.0 hPa 1024.9 hPa -
Pluja: 0.0 mm    
Historical Graphs
 
 
Tabular Data for Octubre 28, 2017
Time Temperature Dew Point Pressure Wind Wind Speed Wind Gust Humidity Rainfall Rate (Hourly) solar Conditions
00:04 16.1 °C 9.8 °C 1029.0 hPa South 25.9 km/h 25.9 km/h 66 % 0.0 mm 0.0 W/m2 CLR
00:09 15.6 °C 9.2 °C 1029.0 hPa SSW 18.5 km/h 18.5 km/h 66 % 0.0 mm 0.0 W/m2 CLR
00:14 15.6 °C 9.2 °C 1029.0 hPa SSW 22.2 km/h 22.2 km/h 66 % 0.0 mm 0.0 W/m2 CLR
00:19 15.6 °C 9.2 °C 1029.0 hPa SSW 20.4 km/h 20.4 km/h 66 % 0.0 mm 0.0 W/m2 CLR
00:24 15.6 °C 9.0 °C 1029.0 hPa South 17.7 km/h 17.7 km/h 65 % 0.0 mm 0.0 W/m2 CLR
00:29 15.6 °C 9.2 °C 1028.7 hPa South 19.3 km/h 19.3 km/h 66 % 0.0 mm 0.0 W/m2 CLR
00:34 15.6 °C 9.2 °C 1028.7 hPa SSE 24.1 km/h 24.1 km/h 66 % 0.0 mm 0.0 W/m2 CLR
00:39 15.6 °C 9.2 °C 1028.7 hPa South 22.2 km/h 22.2 km/h 66 % 0.0 mm 0.0 W/m2 CLR
00:44 15.0 °C 8.7 °C 1028.7 hPa South 24.1 km/h 24.1 km/h 66 % 0.0 mm 0.0 W/m2 CLR
00:49 15.0 °C 8.7 °C 1028.7 hPa South 25.9 km/h 25.9 km/h 66 % 0.0 mm 0.0 W/m2 CLR
00:54 15.6 °C 9.2 °C 1028.7 hPa SSW 22.2 km/h 22.2 km/h 66 % 0.0 mm 0.0 W/m2 CLR
00:59 15.6 °C 9.4 °C 1028.7 hPa SSW 24.1 km/h 24.1 km/h 67 % 0.0 mm 0.0 W/m2 CLR
01:04 15.6 °C 9.4 °C 1028.7 hPa SSW 22.2 km/h 22.2 km/h 67 % 0.0 mm 0.0 W/m2 CLR
01:09 15.0 °C 8.9 °C 1028.7 hPa SSW 20.9 km/h 20.9 km/h 67 % 0.0 mm 0.0 W/m2 CLR
01:14 15.6 °C 9.4 °C 1028.7 hPa South 18.5 km/h 18.5 km/h 67 % 0.0 mm 0.0 W/m2 CLR
01:19 15.6 °C 9.7 °C 1028.7 hPa SSW 18.5 km/h 18.5 km/h 68 % 0.0 mm 0.0 W/m2 CLR
01:24 15.6 °C 9.7 °C 1028.7 hPa SSW 22.2 km/h 22.2 km/h 68 % 0.0 mm 0.0 W/m2 CLR
01:29 15.6 °C 9.7 °C 1028.7 hPa SSE 18.5 km/h 18.5 km/h 68 % 0.0 mm 0.0 W/m2 CLR
01:34 15.0 °C 9.1 °C 1028.7 hPa SSW 24.1 km/h 24.1 km/h 68 % 0.0 mm 0.0 W/m2 CLR
01:39 15.6 °C 9.7 °C 1028.7 hPa South 22.5 km/h 22.5 km/h 68 % 0.0 mm 0.0 W/m2 CLR
01:44 15.6 °C 9.7 °C 1028.7 hPa South 22.2 km/h 22.2 km/h 68 % 0.0 mm 0.0 W/m2 CLR
01:49 15.6 °C 9.9 °C 1028.7 hPa South 24.1 km/h 24.1 km/h 69 % 0.0 mm 0.0 W/m2 CLR
01:54 15.6 °C 9.7 °C 1028.7 hPa SSW 27.8 km/h 27.8 km/h 68 % 0.0 mm 0.0 W/m2 CLR
01:59 15.6 °C 9.9 °C 1028.7 hPa South 22.5 km/h 22.5 km/h 69 % 0.0 mm 0.0 W/m2 CLR
02:04 15.0 °C 9.1 °C 1028.7 hPa SSW 20.4 km/h 20.4 km/h 68 % 0.0 mm 0.0 W/m2 CLR
02:09 15.6 °C 9.7 °C 1028.7 hPa SSW 24.1 km/h 24.1 km/h 68 % 0.0 mm 0.0 W/m2 CLR
02:14 15.6 °C 9.7 °C 1028.7 hPa South 25.9 km/h 25.9 km/h 68 % 0.0 mm 0.0 W/m2 CLR
02:19 15.6 °C 9.7 °C 1028.3 hPa SSW 24.1 km/h 24.1 km/h 68 % 0.0 mm 0.0 W/m2 CLR
02:24 15.6 °C 9.7 °C 1028.7 hPa South 18.5 km/h 18.5 km/h 68 % 0.0 mm 0.0 W/m2 CLR
02:29 15.0 °C 9.1 °C 1028.7 hPa South 22.2 km/h 22.2 km/h 68 % 0.0 mm 0.0 W/m2 CLR
02:34 15.0 °C 9.1 °C 1028.7 hPa South 18.5 km/h 18.5 km/h 68 % 0.0 mm 0.0 W/m2 CLR
02:39 15.0 °C 9.3 °C 1028.3 hPa South 27.8 km/h 27.8 km/h 69 % 0.0 mm 0.0 W/m2 CLR
02:44 15.0 °C 9.3 °C 1028.3 hPa South 22.2 km/h 22.2 km/h 69 % 0.0 mm 0.0 W/m2 CLR
02:49 15.0 °C 9.3 °C 1028.3 hPa SSW 22.2 km/h 22.2 km/h 69 % 0.0 mm 0.0 W/m2 CLR
02:54 15.0 °C 9.3 °C 1028.3 hPa SSE 24.1 km/h 24.1 km/h 69 % 0.0 mm 0.0 W/m2 CLR
02:59 15.0 °C 9.3 °C 1028.3 hPa SSW 22.2 km/h 22.2 km/h 69 % 0.0 mm 0.0 W/m2 CLR
03:04 15.0 °C 9.6 °C 1028.3 hPa SSW 27.8 km/h 27.8 km/h 70 % 0.0 mm 0.0 W/m2 CLR
03:09 15.0 °C 9.6 °C 1028.3 hPa SW 30.6 km/h 30.6 km/h 70 % 0.0 mm 0.0 W/m2 CLR
03:14 15.0 °C 9.6 °C 1028.3 hPa SW 27.8 km/h 27.8 km/h 70 % 0.0 mm 0.0 W/m2 CLR
03:19 15.0 °C 9.6 °C 1028.3 hPa SSW 22.2 km/h 22.2 km/h 70 % 0.0 mm 0.0 W/m2 CLR
03:24 15.0 °C 9.6 °C 1028.0 hPa SSW 18.5 km/h 18.5 km/h 70 % 0.0 mm 0.0 W/m2 CLR
03:29 15.0 °C 9.8 °C 1028.0 hPa SSW 18.5 km/h 18.5 km/h 71 % 0.0 mm 0.0 W/m2 CLR
03:34 15.0 °C 9.8 °C 1028.0 hPa SSW 20.4 km/h 20.4 km/h 71 % 0.0 mm 0.0 W/m2 CLR
03:39 15.0 °C 9.8 °C 1028.0 hPa SW 27.8 km/h 27.8 km/h 71 % 0.0 mm 0.0 W/m2 CLR
03:45 15.0 °C 9.8 °C 1028.0 hPa SSW 24.1 km/h 24.1 km/h 71 % 0.0 mm 0.0 W/m2 CLR
03:50 15.0 °C 10.0 °C 1028.0 hPa SSW 22.2 km/h 22.2 km/h 72 % 0.0 mm 0.0 W/m2 CLR
03:55 15.0 °C 9.8 °C 1028.0 hPa SSW 18.5 km/h 18.5 km/h 71 % 0.0 mm 0.0 W/m2 CLR
04:00 15.0 °C 10.0 °C 1028.3 hPa SSW 18.5 km/h 18.5 km/h 72 % 0.0 mm 0.0 W/m2 CLR
04:05 15.0 °C 10.0 °C 1028.0 hPa SSW 18.5 km/h 18.5 km/h 72 % 0.0 mm 0.0 W/m2 CLR
04:10 15.0 °C 10.0 °C 1028.0 hPa SSW 22.5 km/h 22.5 km/h 72 % 0.0 mm 0.0 W/m2 CLR
04:15 15.0 °C 10.0 °C 1028.3 hPa SSW 18.5 km/h 18.5 km/h 72 % 0.0 mm 0.0 W/m2 CLR
04:20 15.0 °C 10.0 °C 1028.0 hPa WSW 19.3 km/h 19.3 km/h 72 % 0.0 mm 0.0 W/m2 CLR
04:25 14.4 °C 9.4 °C 1028.0 hPa SSW 18.5 km/h 18.5 km/h 72 % 0.0 mm 0.0 W/m2 CLR
04:30 14.4 °C 9.4 °C 1028.0 hPa SSW 22.2 km/h 22.2 km/h 72 % 0.0 mm 0.0 W/m2 CLR
04:35 14.4 °C 9.4 °C 1028.0 hPa SSW 16.7 km/h 16.7 km/h 72 % 0.0 mm 0.0 W/m2 CLR
04:40 14.4 °C 9.4 °C 1028.0 hPa SSW 20.9 km/h 20.9 km/h 72 % 0.0 mm 0.0 W/m2 CLR
04:45 14.4 °C 9.2 °C 1027.7 hPa SSW 22.2 km/h 22.2 km/h 71 % 0.0 mm 0.0 W/m2 CLR
04:50 14.4 °C 9.4 °C 1027.7 hPa SSW 18.5 km/h 18.5 km/h 72 % 0.0 mm 0.0 W/m2 CLR
04:55 14.4 °C 9.4 °C 1027.7 hPa SSW 24.1 km/h 24.1 km/h 72 % 0.0 mm 0.0 W/m2 CLR
05:00 14.4 °C 9.4 °C 1028.0 hPa SSW 18.5 km/h 18.5 km/h 72 % 0.0 mm 0.0 W/m2 CLR
05:05 13.9 °C 8.9 °C 1028.0 hPa SSW 20.4 km/h 20.4 km/h 72 % 0.0 mm 0.0 W/m2 CLR
05:10 13.9 °C 8.9 °C 1027.7 hPa South 24.1 km/h 24.1 km/h 72 % 0.0 mm 0.0 W/m2 CLR
05:15 13.9 °C 8.9 °C 1028.0 hPa SW 27.8 km/h 27.8 km/h 72 % 0.0 mm 0.0 W/m2 CLR
05:20 13.9 °C 8.9 °C 1028.0 hPa South 20.4 km/h 20.4 km/h 72 % 0.0 mm 0.0 W/m2 CLR
05:21 13.9 °C 8.9 °C 1028.0 hPa SSW 22.5 km/h 22.5 km/h 72 % 0.0 mm 0.0 W/m2 CLR
05:22 13.9 °C 8.9 °C 1028.0 hPa SSW 20.4 km/h 20.4 km/h 72 % 0.0 mm 0.0 W/m2 CLR
05:23 13.9 °C 8.9 °C 1028.0 hPa SW 22.5 km/h 22.5 km/h 72 % 0.0 mm 0.0 W/m2 CLR
05:27 13.9 °C 8.9 °C 1028.0 hPa South 27.8 km/h 27.8 km/h 72 % 0.0 mm 0.0 W/m2 CLR
05:32 13.9 °C 8.9 °C 1028.0 hPa SSW 29.6 km/h 29.6 km/h 72 % 0.0 mm 0.0 W/m2 CLR
05:37 13.9 °C 8.7 °C 1028.0 hPa SSW 20.4 km/h 20.4 km/h 71 % 0.0 mm 0.0 W/m2 CLR
05:42 13.9 °C 8.9 °C 1028.0 hPa South 18.5 km/h 18.5 km/h 72 % 0.0 mm 0.0 W/m2 CLR
05:47 13.9 °C 8.9 °C 1028.0 hPa SSW 16.7 km/h 16.7 km/h 72 % 0.0 mm 0.0 W/m2 CLR
05:52 13.9 °C 8.9 °C 1028.0 hPa SSW 14.8 km/h 14.8 km/h 72 % 0.0 mm 0.0 W/m2 CLR
05:57 13.9 °C 8.9 °C 1028.0 hPa SSW 18.5 km/h 18.5 km/h 72 % 0.0 mm 0.0 W/m2 CLR
06:02 13.3 °C 8.6 °C 1028.0 hPa South 16.7 km/h 16.7 km/h 73 % 0.0 mm 0.0 W/m2 CLR
06:08 13.3 °C 8.6 °C 1028.0 hPa South 18.5 km/h 18.5 km/h 73 % 0.0 mm 0.0 W/m2 CLR
06:13 13.3 °C 8.6 °C 1028.0 hPa South 16.7 km/h 16.7 km/h 73 % 0.0 mm 0.0 W/m2 CLR
06:18 12.8 °C 8.3 °C 1028.0 hPa SSW 16.7 km/h 16.7 km/h 74 % 0.0 mm 0.0 W/m2 CLR
06:23 12.8 °C 8.3 °C 1028.0 hPa South 16.7 km/h 16.7 km/h 74 % 0.0 mm 0.0 W/m2 CLR
06:28 12.8 °C 8.3 °C 1028.0 hPa South 9.3 km/h 9.3 km/h 74 % 0.0 mm 0.0 W/m2 CLR
06:33 12.8 °C 8.3 °C 1028.0 hPa SSE 8.0 km/h 10.3 km/h 74 % 0.0 mm 0.0 W/m2 CLR
06:38 12.8 °C 8.3 °C 1028.0 hPa SSE 7.4 km/h 7.4 km/h 74 % 0.0 mm 0.0 W/m2 CLR
06:43 12.8 °C 8.4 °C 1028.0 hPa SSE 9.3 km/h 9.3 km/h 75 % 0.0 mm 0.0 W/m2 CLR
06:48 12.8 °C 8.4 °C 1028.0 hPa SSE 9.3 km/h 9.3 km/h 75 % 0.0 mm 0.0 W/m2 CLR
06:53 12.2 °C 8.1 °C 1028.0 hPa SSE 14.5 km/h 14.5 km/h 76 % 0.0 mm 0.0 W/m2 CLR
06:58 11.7 °C 7.6 °C 1028.0 hPa South 16.7 km/h 16.7 km/h 76 % 0.0 mm 0.0 W/m2 CLR
07:03 11.7 °C 7.6 °C 1028.0 hPa South 11.1 km/h 11.1 km/h 76 % 0.0 mm 0.0 W/m2 CLR
07:08 11.7 °C 7.6 °C 1028.0 hPa South 14.8 km/h 14.8 km/h 76 % 0.0 mm 0.0 W/m2 CLR
07:13 11.7 °C 7.6 °C 1028.0 hPa South 11.1 km/h 11.1 km/h 76 % 0.0 mm 0.0 W/m2 CLR
07:18 11.7 °C 7.8 °C 1028.0 hPa South 9.7 km/h 9.7 km/h 77 % 0.0 mm 0.0 W/m2 CLR
07:23 11.7 °C 7.6 °C 1028.0 hPa South 18.5 km/h 18.5 km/h 76 % 0.0 mm 0.0 W/m2 CLR
07:28 11.7 °C 7.6 °C 1028.0 hPa South 9.7 km/h 9.7 km/h 76 % 0.0 mm 0.0 W/m2 CLR
07:33 11.7 °C 7.6 °C 1028.0 hPa South 9.3 km/h 9.3 km/h 76 % 0.0 mm 0.0 W/m2 CLR
07:38 11.7 °C 7.6 °C 1028.0 hPa SSE 18.5 km/h 18.5 km/h 76 % 0.0 mm 0.0 W/m2 CLR
07:43 11.7 °C 7.6 °C 1028.0 hPa SSE 11.1 km/h 11.1 km/h 76 % 0.0 mm 0.0 W/m2 CLR
07:48 11.7 °C 7.8 °C 1028.0 hPa South 12.9 km/h 12.9 km/h 77 % 0.0 mm 0.0 W/m2 CLR
07:53 12.2 °C 8.3 °C 1028.0 hPa SSE 11.3 km/h 11.3 km/h 77 % 0.0 mm 0.0 W/m2 CLR
07:58 12.8 °C 8.8 °C 1028.0 hPa SE 11.1 km/h 11.1 km/h 77 % 0.0 mm 0.0 W/m2 CLR
08:03 12.8 °C 8.8 °C 1028.0 hPa SSE 9.3 km/h 9.3 km/h 77 % 0.0 mm 0.0 W/m2 CLR
08:08 12.8 °C 8.8 °C 1028.0 hPa SSE 14.8 km/h 14.8 km/h 77 % 0.0 mm 0.0 W/m2 CLR
08:13 12.8 °C 8.8 °C 1028.0 hPa SSE 13.0 km/h 13.0 km/h 77 % 0.0 mm 0.0 W/m2 CLR
08:18 12.8 °C 8.8 °C 1028.0 hPa South 11.1 km/h 11.1 km/h 77 % 0.0 mm 0.0 W/m2 OVC
08:23 12.8 °C 8.8 °C 1028.0 hPa South 14.8 km/h 14.8 km/h 77 % 0.0 mm 0.0 W/m2 OVC
08:28 12.8 °C 8.8 °C 1028.0 hPa South 11.1 km/h 11.1 km/h 77 % 0.0 mm 5.0 W/m2 OVC
08:33 12.2 °C 8.3 °C 1028.0 hPa South 18.5 km/h 18.5 km/h 77 % 0.0 mm 9.0 W/m2 BKN
08:38 12.2 °C 8.3 °C 1028.0 hPa SSE 20.4 km/h 20.4 km/h 77 % 0.0 mm 9.0 W/m2 BKN
08:43 12.2 °C 8.3 °C 1028.0 hPa SSE 11.3 km/h 11.3 km/h 77 % 0.0 mm 14.0 W/m2 BKN
08:48 12.8 °C 8.8 °C 1028.3 hPa SSE 9.3 km/h 9.3 km/h 77 % 0.0 mm 18.0 W/m2 BKN
08:53 12.8 °C 8.8 °C 1028.3 hPa South 9.7 km/h 9.7 km/h 77 % 0.0 mm 21.0 W/m2 BKN
08:58 12.8 °C 8.8 °C 1028.3 hPa South 18.5 km/h 18.5 km/h 77 % 0.0 mm 28.0 W/m2 BKN
09:03 12.8 °C 8.7 °C 1028.3 hPa South 18.5 km/h 18.5 km/h 76 % 0.0 mm 39.0 W/m2 BKN
09:08 12.8 °C 8.7 °C 1028.7 hPa South 13.0 km/h 13.0 km/h 76 % 0.0 mm 46.0 W/m2 SCT
09:13 13.3 °C 9.0 °C 1028.7 hPa South 9.3 km/h 9.3 km/h 75 % 0.0 mm 62.0 W/m2 SCT
09:18 13.3 °C 9.0 °C 1028.7 hPa South 20.4 km/h 20.4 km/h 75 % 0.0 mm 72.0 W/m2 FEW
09:19 13.3 °C 8.8 °C 1028.7 hPa SSW 20.4 km/h 20.4 km/h 74 % 0.0 mm 72.0 W/m2 FEW
09:24 13.3 °C 8.8 °C 1028.7 hPa South 22.5 km/h 22.5 km/h 74 % 0.0 mm 90.0 W/m2 CLR
09:29 13.3 °C 8.6 °C 1028.7 hPa South 22.2 km/h 22.2 km/h 73 % 0.0 mm 104.0 W/m2 CLR
09:34 13.9 °C 9.1 °C 1028.7 hPa South 20.4 km/h 20.4 km/h 73 % 0.0 mm 98.0 W/m2 CLR
09:39 13.9 °C 8.9 °C 1028.7 hPa South 27.8 km/h 27.8 km/h 72 % 0.0 mm 127.0 W/m2 CLR
09:44 13.9 °C 8.9 °C 1029.0 hPa SSW 27.8 km/h 27.8 km/h 72 % 0.0 mm 137.0 W/m2 CLR
09:49 14.4 °C 9.2 °C 1029.0 hPa SSE 18.5 km/h 18.5 km/h 71 % 0.0 mm 137.0 W/m2 CLR
09:54 14.4 °C 9.2 °C 1029.0 hPa SSW 5.6 km/h 5.6 km/h 71 % 0.0 mm 105.0 W/m2 CLR
09:59 14.4 °C 9.1 °C 1029.0 hPa South 13.0 km/h 13.0 km/h 70 % 0.0 mm 142.0 W/m2 CLR
10:04 15.0 °C 9.6 °C 1028.7 hPa SSW 22.2 km/h 22.2 km/h 70 % 0.0 mm 216.0 W/m2 CLR
10:09 15.0 °C 9.6 °C 1028.7 hPa South 6.4 km/h 6.4 km/h 70 % 0.0 mm 236.0 W/m2 CLR
10:14 15.0 °C 9.3 °C 1028.7 hPa SSW 24.1 km/h 24.1 km/h 69 % 0.0 mm 251.0 W/m2 CLR
10:19 15.0 °C 9.1 °C 1028.7 hPa South 20.9 km/h 20.9 km/h 68 % 0.0 mm 265.0 W/m2 CLR
10:24 15.6 °C 9.7 °C 1028.7 hPa SW 18.5 km/h 18.5 km/h 68 % 0.0 mm 279.0 W/m2 CLR
10:29 15.6 °C 9.7 °C 1028.7 hPa South 14.8 km/h 14.8 km/h 68 % 0.0 mm 295.0 W/m2 CLR
10:34 15.6 °C 9.7 °C 1029.0 hPa South 18.5 km/h 18.5 km/h 68 % 0.0 mm 299.0 W/m2 CLR
10:39 15.6 °C 9.4 °C 1028.7 hPa SSW 22.2 km/h 22.2 km/h 67 % 0.0 mm 309.0 W/m2 CLR
10:44 15.6 °C 9.4 °C 1028.7 hPa South 25.9 km/h 25.9 km/h 67 % 0.0 mm 332.0 W/m2 CLR
10:49 16.1 °C 10.0 °C 1028.7 hPa South 22.2 km/h 22.2 km/h 67 % 0.0 mm 339.0 W/m2 CLR
10:54 16.1 °C 9.8 °C 1028.7 hPa SW 24.1 km/h 24.1 km/h 66 % 0.0 mm 339.0 W/m2 CLR
10:59 16.1 °C 9.8 °C 1028.7 hPa SSW 31.5 km/h 31.5 km/h 66 % 0.0 mm 346.0 W/m2 CLR
11:04 16.1 °C 9.5 °C 1028.7 hPa SSW 20.4 km/h 20.4 km/h 65 % 0.0 mm 338.0 W/m2 CLR
11:09 16.1 °C 9.8 °C 1028.7 hPa SW 24.1 km/h 24.1 km/h 66 % 0.0 mm 373.0 W/m2 CLR
11:14 16.1 °C 9.5 °C 1028.7 hPa SW 20.4 km/h 20.4 km/h 65 % 0.0 mm 415.0 W/m2 CLR
11:19 16.7 °C 10.3 °C 1028.7 hPa SSW 32.2 km/h 32.2 km/h 66 % 0.0 mm 427.0 W/m2 CLR
11:24 17.2 °C 10.6 °C 1028.7 hPa SW 20.4 km/h 20.4 km/h 65 % 0.0 mm 431.0 W/m2 CLR
11:29 17.2 °C 10.3 °C 1028.7 hPa WSW 32.2 km/h 32.2 km/h 64 % 0.0 mm 450.0 W/m2 CLR
11:34 17.2 °C 10.3 °C 1028.3 hPa SW 20.4 km/h 20.4 km/h 64 % 0.0 mm 441.0 W/m2 CLR
11:39 17.2 °C 10.1 °C 1028.3 hPa SW 29.0 km/h 29.0 km/h 63 % 0.0 mm 439.0 W/m2 CLR
11:44 17.2 °C 10.3 °C 1028.3 hPa SSW 24.1 km/h 24.1 km/h 64 % 0.0 mm 443.0 W/m2 CLR
11:49 17.8 °C 10.4 °C 1028.3 hPa SW 20.4 km/h 20.4 km/h 62 % 0.0 mm 462.0 W/m2 CLR
11:54 17.2 °C 9.9 °C 1028.3 hPa SW 25.9 km/h 25.9 km/h 62 % 0.0 mm 429.0 W/m2 CLR
11:59 17.2 °C 9.9 °C 1028.3 hPa SSW 24.1 km/h 24.1 km/h 62 % 0.0 mm 452.0 W/m2 CLR
12:04 17.8 °C 10.2 °C 1028.3 hPa SSW 22.2 km/h 22.2 km/h 61 % 0.0 mm 443.0 W/m2 CLR
12:06 17.8 °C 10.2 °C 1028.3 hPa SSW 22.2 km/h 22.2 km/h 61 % 0.0 mm 469.0 W/m2 CLR
12:11 17.8 °C 10.2 °C 1028.0 hPa SW 19.3 km/h 19.3 km/h 61 % 0.0 mm 454.0 W/m2 CLR
12:16 17.8 °C 9.9 °C 1028.3 hPa WSW 16.1 km/h 16.1 km/h 60 % 0.0 mm 353.0 W/m2 CLR
12:21 17.8 °C 9.9 °C 1028.0 hPa SSW 18.5 km/h 18.5 km/h 60 % 0.0 mm 452.0 W/m2 CLR
12:26 18.3 °C 10.2 °C 1028.3 hPa West 20.4 km/h 20.4 km/h 59 % 0.0 mm 499.0 W/m2 CLR
12:31 18.3 °C 9.9 °C 1028.0 hPa WSW 24.1 km/h 24.1 km/h 58 % 0.0 mm 534.0 W/m2 CLR
12:36 18.3 °C 9.9 °C 1028.0 hPa SW 27.8 km/h 27.8 km/h 58 % 0.0 mm 536.0 W/m2 CLR
12:41 18.3 °C 9.7 °C 1028.0 hPa South 27.8 km/h 27.8 km/h 57 % 0.0 mm 541.0 W/m2 CLR
12:46 18.9 °C 10.4 °C 1028.0 hPa SW 24.1 km/h 24.1 km/h 58 % 0.0 mm 543.0 W/m2 CLR
12:51 18.9 °C 10.2 °C 1028.0 hPa SW 22.5 km/h 22.5 km/h 57 % 0.0 mm 547.0 W/m2 CLR
12:56 18.9 °C 10.2 °C 1027.7 hPa WSW 24.1 km/h 24.1 km/h 57 % 0.0 mm 548.0 W/m2 CLR
13:01 18.9 °C 9.9 °C 1027.7 hPa SSW 22.2 km/h 22.2 km/h 56 % 0.0 mm 555.0 W/m2 CLR
13:06 18.9 °C 10.2 °C 1027.7 hPa South 22.5 km/h 22.5 km/h 57 % 0.0 mm 557.0 W/m2 CLR
13:11 18.9 °C 9.9 °C 1027.7 hPa SW 13.0 km/h 13.0 km/h 56 % 0.0 mm 561.0 W/m2 CLR
13:16 19.4 °C 10.4 °C 1027.7 hPa SSW 22.2 km/h 22.2 km/h 56 % 0.0 mm 563.0 W/m2 CLR
13:21 19.4 °C 10.2 °C 1027.3 hPa SSW 16.7 km/h 16.7 km/h 55 % 0.0 mm 568.0 W/m2 CLR
13:27 20.0 °C 10.7 °C 1027.3 hPa SSW 22.2 km/h 22.2 km/h 55 % 0.0 mm 568.0 W/m2 CLR
13:31 20.0 °C 10.7 °C 1027.3 hPa WSW 24.1 km/h 24.1 km/h 55 % 0.0 mm 570.0 W/m2 CLR
13:36 20.0 °C 10.4 °C 1027.3 hPa SSW 20.4 km/h 20.4 km/h 54 % 0.0 mm 571.0 W/m2 CLR
13:41 20.0 °C 10.1 °C 1027.3 hPa South 24.1 km/h 24.1 km/h 53 % 0.0 mm 568.0 W/m2 CLR
13:42 20.0 °C 10.1 °C 1027.3 hPa South 24.1 km/h 24.1 km/h 53 % 0.0 mm 568.0 W/m2 CLR
13:47 20.0 °C 10.4 °C 1027.0 hPa SSW 18.5 km/h 18.5 km/h 54 % 0.0 mm 571.0 W/m2 CLR
13:52 20.0 °C 10.1 °C 1027.0 hPa SSW 20.4 km/h 20.4 km/h 53 % 0.0 mm 570.0 W/m2 CLR
13:57 20.0 °C 10.1 °C 1027.0 hPa SW 18.5 km/h 18.5 km/h 53 % 0.0 mm 570.0 W/m2 CLR
14:02 20.6 °C 10.7 °C 1027.0 hPa WSW 18.5 km/h 18.5 km/h 53 % 0.0 mm 570.0 W/m2 CLR
14:07 20.6 °C 10.7 °C 1027.0 hPa WSW 27.8 km/h 27.8 km/h 53 % 0.0 mm 566.0 W/m2 CLR
14:12 20.6 °C 10.7 °C 1026.6 hPa WSW 27.8 km/h 27.8 km/h 53 % 0.0 mm 564.0 W/m2 CLR
14:22 20.6 °C 10.7 °C 1026.6 hPa SW 22.2 km/h 22.2 km/h 53 % 0.0 mm 557.0 W/m2 CLR
14:27 20.0 °C 10.1 °C 1026.6 hPa SW 20.4 km/h 20.4 km/h 53 % 0.0 mm 559.0 W/m2 CLR
14:32 20.6 °C 10.7 °C 1026.6 hPa WSW 14.8 km/h 14.8 km/h 53 % 0.0 mm 550.0 W/m2 CLR
14:37 21.1 °C 10.9 °C 1026.3 hPa SSW 20.4 km/h 20.4 km/h 52 % 0.0 mm 550.0 W/m2 CLR
14:42 20.6 °C 10.3 °C 1026.3 hPa SW 22.2 km/h 22.2 km/h 52 % 0.0 mm 543.0 W/m2 CLR
14:47 21.1 °C 10.9 °C 1026.3 hPa SW 24.1 km/h 24.1 km/h 52 % 0.0 mm 538.0 W/m2 CLR
14:52 20.6 °C 10.3 °C 1026.3 hPa SW 16.7 km/h 16.7 km/h 52 % 0.0 mm 533.0 W/m2 CLR
14:57 20.6 °C 10.1 °C 1026.3 hPa SW 25.9 km/h 25.9 km/h 51 % 0.0 mm 529.0 W/m2 CLR
15:02 21.1 °C 10.3 °C 1026.0 hPa SSW 18.5 km/h 18.5 km/h 50 % 0.0 mm 522.0 W/m2 CLR
15:07 21.1 °C 10.3 °C 1026.0 hPa SW 27.8 km/h 27.8 km/h 50 % 0.0 mm 519.0 W/m2 CLR
15:12 21.1 °C 10.0 °C 1026.0 hPa South 20.4 km/h 20.4 km/h 49 % 0.0 mm 512.0 W/m2 CLR
15:17 21.1 °C 10.3 °C 1026.0 hPa SW 16.7 km/h 16.7 km/h 50 % 0.0 mm 503.0 W/m2 CLR
15:22 21.1 °C 10.0 °C 1026.0 hPa SW 24.1 km/h 24.1 km/h 49 % 0.0 mm 494.0 W/m2 CLR
15:27 21.1 °C 10.3 °C 1026.0 hPa SW 20.9 km/h 20.9 km/h 50 % 0.0 mm 489.0 W/m2 CLR
15:32 20.6 °C 9.8 °C 1026.0 hPa SW 16.7 km/h 16.7 km/h 50 % 0.0 mm 480.0 W/m2 CLR
15:37 21.1 °C 10.3 °C 1025.6 hPa SW 14.8 km/h 14.8 km/h 50 % 0.0 mm 471.0 W/m2 CLR
15:42 21.1 °C 10.0 °C 1025.6 hPa SW 22.2 km/h 22.2 km/h 49 % 0.0 mm 462.0 W/m2 CLR
15:47 21.1 °C 10.0 °C 1025.6 hPa South 5.6 km/h 5.6 km/h 49 % 0.0 mm 455.0 W/m2 CLR
15:52 21.7 °C 10.5 °C 1025.6 hPa WSW 24.1 km/h 24.1 km/h 49 % 0.0 mm 446.0 W/m2 CLR
15:57 21.7 °C 10.2 °C 1025.6 hPa SW 9.3 km/h 9.3 km/h 48 % 0.0 mm 434.0 W/m2 CLR
16:02 21.1 °C 9.7 °C 1025.6 hPa SSW 22.2 km/h 22.2 km/h 48 % 0.0 mm 424.0 W/m2 CLR
16:07 21.1 °C 9.7 °C 1025.3 hPa South 14.8 km/h 14.8 km/h 48 % 0.0 mm 413.0 W/m2 CLR
16:12 21.1 °C 9.3 °C 1025.3 hPa WSW 18.5 km/h 18.5 km/h 47 % 0.0 mm 403.0 W/m2 CLR
16:17 21.1 °C 9.3 °C 1025.3 hPa SSW 20.4 km/h 20.4 km/h 47 % 0.0 mm 392.0 W/m2 CLR
16:22 21.7 °C 9.8 °C 1025.3 hPa SSW 20.4 km/h 20.4 km/h 47 % 0.0 mm 381.0 W/m2 CLR
16:27 21.7 °C 9.8 °C 1025.3 hPa SSW 20.4 km/h 20.4 km/h 47 % 0.0 mm 369.0 W/m2 CLR
16:32 21.1 °C 9.1 °C 1025.3 hPa WSW 18.5 km/h 18.5 km/h 46 % 0.0 mm 357.0 W/m2 CLR
16:37 21.7 °C 9.8 °C 1025.3 hPa SSW 18.5 km/h 18.5 km/h 47 % 0.0 mm 348.0 W/m2 CLR
16:42 21.7 °C 9.6 °C 1025.3 hPa SW 20.4 km/h 20.4 km/h 46 % 0.0 mm 334.0 W/m2 CLR
16:47 21.1 °C 9.1 °C 1025.3 hPa SW 18.5 km/h 18.5 km/h 46 % 0.0 mm 322.0 W/m2 CLR
16:53 21.1 °C 9.1 °C 1025.3 hPa SSW 18.5 km/h 18.5 km/h 46 % 0.0 mm 308.0 W/m2 CLR
16:58 21.1 °C 9.1 °C 1025.3 hPa SSW 16.7 km/h 16.7 km/h 46 % 0.0 mm 294.0 W/m2 CLR
17:03 21.1 °C 9.1 °C 1025.3 hPa SW 18.5 km/h 18.5 km/h 46 % 0.0 mm 283.0 W/m2 CLR
17:08 21.1 °C 9.1 °C 1025.3 hPa WSW 17.7 km/h 17.7 km/h 46 % 0.0 mm 269.0 W/m2 CLR
17:13 21.1 °C 9.1 °C 1024.9 hPa SW 19.3 km/h 19.3 km/h 46 % 0.0 mm 253.0 W/m2 CLR
17:18 21.1 °C 9.1 °C 1024.9 hPa SSW 16.7 km/h 16.7 km/h 46 % 0.0 mm 239.0 W/m2 CLR
17:23 20.6 °C 8.6 °C 1024.9 hPa West 14.8 km/h 14.8 km/h 46 % 0.0 mm 223.0 W/m2 CLR
17:28 20.6 °C 8.6 °C 1024.9 hPa SW 22.5 km/h 22.5 km/h 46 % 0.0 mm 207.0 W/m2 CLR
17:33 20.6 °C 8.6 °C 1025.3 hPa SW 18.5 km/h 18.5 km/h 46 % 0.0 mm 190.0 W/m2 CLR
17:38 20.6 °C 8.6 °C 1025.3 hPa SW 24.1 km/h 24.1 km/h 46 % 0.0 mm 174.0 W/m2 CLR
17:43 20.6 °C 8.6 °C 1025.3 hPa SSW 16.7 km/h 16.7 km/h 46 % 0.0 mm 160.0 W/m2 CLR
17:48 20.0 °C 8.3 °C 1025.3 hPa SSW 18.5 km/h 18.5 km/h 47 % 0.0 mm 141.0 W/m2 CLR
17:53 20.0 °C 8.3 °C 1025.3 hPa SSW 18.5 km/h 18.5 km/h 47 % 0.0 mm 123.0 W/m2 CLR
17:58 20.0 °C 8.3 °C 1025.3 hPa SW 20.4 km/h 20.4 km/h 47 % 0.0 mm 109.0 W/m2 CLR
18:03 19.4 °C 7.8 °C 1025.3 hPa SW 18.5 km/h 18.5 km/h 47 % 0.0 mm 95.0 W/m2 CLR
18:08 19.4 °C 7.8 °C 1025.3 hPa WSW 20.4 km/h 20.4 km/h 47 % 0.0 mm 79.0 W/m2 FEW
18:13 19.4 °C 7.8 °C 1025.3 hPa SW 18.5 km/h 18.5 km/h 47 % 0.0 mm 65.0 W/m2 FEW
18:18 19.4 °C 8.2 °C 1025.6 hPa SW 17.7 km/h 17.7 km/h 48 % 0.0 mm 53.0 W/m2 SCT
18:23 19.4 °C 8.2 °C 1025.3 hPa SW 18.5 km/h 18.5 km/h 48 % 0.0 mm 44.0 W/m2 SCT
18:28 18.9 °C 7.6 °C 1025.3 hPa WSW 14.5 km/h 14.5 km/h 48 % 0.0 mm 33.0 W/m2 BKN
18:33 18.9 °C 7.9 °C 1025.6 hPa SW 20.4 km/h 20.4 km/h 49 % 0.0 mm 25.0 W/m2 BKN
18:38 18.3 °C 7.4 °C 1025.6 hPa WSW 18.5 km/h 18.5 km/h 49 % 0.0 mm 18.0 W/m2 BKN
18:43 18.3 °C 7.7 °C 1025.6 hPa SW 20.4 km/h 20.4 km/h 50 % 0.0 mm 14.0 W/m2 BKN
18:48 18.3 °C 7.7 °C 1025.6 hPa WSW 14.8 km/h 14.8 km/h 50 % 0.0 mm 12.0 W/m2 BKN
18:53 18.3 °C 7.7 °C 1025.6 hPa WSW 18.5 km/h 18.5 km/h 50 % 0.0 mm 9.0 W/m2 BKN
18:58 18.3 °C 8.0 °C 1025.6 hPa SW 5.6 km/h 5.6 km/h 51 % 0.0 mm 7.0 W/m2 BKN
19:03 17.8 °C 7.5 °C 1026.0 hPa Calm     51 % 0.0 mm 0.0 W/m2 OVC
19:08 17.2 °C 7.0 °C 1026.0 hPa SSW 11.1 km/h 11.1 km/h 51 % 0.0 mm 0.0 W/m2 OVC
19:13 16.7 °C 6.5 °C 1026.0 hPa SW 18.5 km/h 18.5 km/h 51 % 0.0 mm 0.0 W/m2 CLR
19:18 16.7 °C 6.8 °C 1026.0 hPa SW 13.0 km/h 13.0 km/h 52 % 0.0 mm 0.0 W/m2 CLR
19:23 16.1 °C 6.2 °C 1026.0 hPa SW 16.1 km/h 16.1 km/h 52 % 0.0 mm 0.0 W/m2 CLR
19:28 16.1 °C 6.2 °C 1026.3 hPa SSW 16.7 km/h 16.7 km/h 52 % 0.0 mm 0.0 W/m2 CLR
19:33 16.1 °C 6.5 °C 1026.3 hPa SW 18.5 km/h 18.5 km/h 53 % 0.0 mm 0.0 W/m2 CLR
19:38 16.1 °C 6.5 °C 1026.3 hPa SW 14.8 km/h 14.8 km/h 53 % 0.0 mm 0.0 W/m2 CLR
19:43 16.1 °C 6.5 °C 1026.3 hPa SW 18.5 km/h 18.5 km/h 53 % 0.0 mm 0.0 W/m2 CLR
19:48 16.1 °C 6.8 °C 1026.3 hPa SSW 25.9 km/h 25.9 km/h 54 % 0.0 mm 0.0 W/m2 CLR
19:53 16.1 °C 6.8 °C 1026.6 hPa SW 29.6 km/h 29.6 km/h 54 % 0.0 mm 0.0 W/m2 CLR
19:58 16.1 °C 6.8 °C 1026.6 hPa SW 19.3 km/h 19.3 km/h 54 % 0.0 mm 0.0 W/m2 CLR
20:03 16.1 °C 7.1 °C 1026.6 hPa WSW 19.3 km/h 19.3 km/h 55 % 0.0 mm 0.0 W/m2 CLR
20:08 16.1 °C 7.1 °C 1026.6 hPa SW 25.9 km/h 25.9 km/h 55 % 0.0 mm 0.0 W/m2 CLR
20:13 15.6 °C 6.8 °C 1026.6 hPa SSW 16.7 km/h 16.7 km/h 56 % 0.0 mm 0.0 W/m2 CLR
20:18 15.6 °C 6.8 °C 1026.6 hPa SSW 18.5 km/h 18.5 km/h 56 % 0.0 mm 0.0 W/m2 CLR
20:23 15.6 °C 7.1 °C 1026.6 hPa SSW 18.5 km/h 18.5 km/h 57 % 0.0 mm 0.0 W/m2 CLR
20:28 15.6 °C 7.1 °C 1026.6 hPa SSW 13.0 km/h 13.0 km/h 57 % 0.0 mm 0.0 W/m2 CLR
20:33 15.0 °C 6.8 °C 1026.6 hPa SSW 19.3 km/h 19.3 km/h 58 % 0.0 mm 0.0 W/m2 CLR
20:38 15.0 °C 6.8 °C 1026.6 hPa SW 20.4 km/h 20.4 km/h 58 % 0.0 mm 0.0 W/m2 CLR
20:43 15.0 °C 6.8 °C 1026.6 hPa SW 14.8 km/h 14.8 km/h 58 % 0.0 mm 0.0 W/m2 CLR
20:48 15.0 °C 7.1 °C 1026.6 hPa SSW 14.8 km/h 14.8 km/h 59 % 0.0 mm 0.0 W/m2 CLR
20:53 15.0 °C 7.1 °C 1026.6 hPa South 18.5 km/h 18.5 km/h 59 % 0.0 mm 0.0 W/m2 CLR
20:58 15.0 °C 7.1 °C 1026.6 hPa WSW 18.5 km/h 18.5 km/h 59 % 0.0 mm 0.0 W/m2 CLR
21:03 15.0 °C 7.1 °C 1026.6 hPa SSW 16.7 km/h 16.7 km/h 59 % 0.0 mm 0.0 W/m2 CLR
21:08 15.0 °C 7.1 °C 1026.6 hPa SSW 19.3 km/h 19.3 km/h 59 % 0.0 mm 0.0 W/m2 CLR
21:13 15.0 °C 7.1 °C 1026.6 hPa SSW 18.5 km/h 18.5 km/h 59 % 0.0 mm 0.0 W/m2 CLR
21:18 15.0 °C 7.1 °C 1026.6 hPa SSW 11.1 km/h 11.1 km/h 59 % 0.0 mm 0.0 W/m2 CLR
21:23 14.4 °C 6.5 °C 1026.6 hPa SSW 18.5 km/h 18.5 km/h 59 % 0.0 mm 0.0 W/m2 CLR
21:28 13.9 °C 6.0 °C 1026.6 hPa SSW 13.0 km/h 13.0 km/h 59 % 0.0 mm 0.0 W/m2 CLR
21:33 13.3 °C 5.7 °C 1026.6 hPa SSW 18.5 km/h 18.5 km/h 60 % 0.0 mm 0.0 W/m2 CLR
21:38 12.8 °C 5.2 °C 1026.6 hPa SW 16.7 km/h 16.7 km/h 60 % 0.0 mm 0.0 W/m2 CLR
21:44 12.8 °C 5.2 °C 1026.6 hPa SW 16.1 km/h 16.1 km/h 60 % 0.0 mm 0.0 W/m2 CLR
21:49 12.2 °C 4.9 °C 1026.6 hPa SSW 14.8 km/h 14.8 km/h 61 % 0.0 mm 0.0 W/m2 CLR
21:54 12.8 °C 5.4 °C 1026.6 hPa SW 16.7 km/h 16.7 km/h 61 % 0.0 mm 0.0 W/m2 CLR
21:59 12.8 °C 5.4 °C 1026.6 hPa SSW 20.4 km/h 20.4 km/h 61 % 0.0 mm 0.0 W/m2 CLR
22:04 13.3 °C 5.9 °C 1026.6 hPa SSW 18.5 km/h 18.5 km/h 61 % 0.0 mm 0.0 W/m2 CLR
22:09 13.9 °C 6.5 °C 1026.6 hPa SW 18.5 km/h 18.5 km/h 61 % 0.0 mm 0.0 W/m2 CLR
22:14 13.9 °C 6.5 °C 1026.6 hPa SSW 16.7 km/h 16.7 km/h 61 % 0.0 mm 0.0 W/m2 CLR
22:19 13.9 °C 6.7 °C 1027.0 hPa South 18.5 km/h 18.5 km/h 62 % 0.0 mm 0.0 W/m2 CLR
22:24 13.9 °C 6.7 °C 1027.0 hPa SSW 14.8 km/h 14.8 km/h 62 % 0.0 mm 0.0 W/m2 CLR
22:29 13.9 °C 6.7 °C 1027.0 hPa SSW 18.5 km/h 18.5 km/h 62 % 0.0 mm 0.0 W/m2 CLR
22:34 13.9 °C 6.7 °C 1027.0 hPa South 14.5 km/h 14.5 km/h 62 % 0.0 mm 0.0 W/m2 CLR
22:39 13.9 °C 6.7 °C 1027.0 hPa SSW 18.5 km/h 18.5 km/h 62 % 0.0 mm 0.0 W/m2 CLR
22:44 13.9 °C 6.7 °C 1027.0 hPa South 14.8 km/h 14.8 km/h 62 % 0.0 mm 0.0 W/m2 CLR
22:49 13.3 °C 6.2 °C 1027.0 hPa SSW 13.0 km/h 13.0 km/h 62 % 0.0 mm 0.0 W/m2 CLR
22:54 12.8 °C 5.9 °C 1026.6 hPa SSW 14.8 km/h 14.8 km/h 63 % 0.0 mm 0.0 W/m2 CLR
22:59 12.8 °C 5.9 °C 1026.6 hPa SSW 16.1 km/h 16.1 km/h 63 % 0.0 mm 0.0 W/m2 CLR
23:04 12.2 °C 5.4 °C 1027.0 hPa South 9.7 km/h 9.7 km/h 63 % 0.0 mm 0.0 W/m2 CLR
23:09 12.2 °C 5.6 °C 1027.0 hPa South 5.6 km/h 5.6 km/h 64 % 0.0 mm 0.0 W/m2 CLR
23:14 11.7 °C 5.1 °C 1026.6 hPa SSW 16.7 km/h 16.7 km/h 64 % 0.0 mm 0.0 W/m2 CLR
23:19 11.7 °C 5.3 °C 1027.0 hPa SSW 16.7 km/h 16.7 km/h 65 % 0.0 mm 0.0 W/m2 CLR
23:24 11.1 °C 4.8 °C 1027.0 hPa SSW 5.6 km/h 5.6 km/h 65 % 0.0 mm 0.0 W/m2 CLR
23:29 11.1 °C 4.8 °C 1027.0 hPa SSW 18.5 km/h 18.5 km/h 65 % 0.0 mm 0.0 W/m2 CLR
23:34 11.7 °C 5.3 °C 1027.0 hPa South 11.1 km/h 11.1 km/h 65 % 0.0 mm 0.0 W/m2 CLR
23:39 11.7 °C 5.3 °C 1027.0 hPa Calm     65 % 0.0 mm 0.0 W/m2 CLR
23:44 11.1 °C 4.8 °C 1027.0 hPa SSE 4.8 km/h 4.8 km/h 65 % 0.0 mm 0.0 W/m2 CLR
23:49 11.1 °C 5.0 °C 1027.0 hPa Calm     66 % 0.0 mm 0.0 W/m2 CLR
23:54 10.6 °C 4.7 °C 1027.0 hPa South 14.5 km/h 14.5 km/h 67 % 0.0 mm 0.0 W/m2 CLR
23:59 10.0 °C 4.2 °C 1027.0 hPa SSW 18.5 km/h 18.5 km/h 67 % 0.0 mm 0.0 W/m2 CLR
Lo Temps de Massalio
Compliments of Weather Underground - 1.25 mb